createdAt,value
2018-09-29T00:01:48.873Z,5.59
2018-09-29T00:06:49.298Z,5.59
2018-09-29T00:11:49.520Z,5.49
2018-09-29T00:16:48.804Z,5.19
2018-09-29T00:21:49.286Z,5.29
2018-09-29T00:26:48.890Z,5.19
2018-09-29T00:31:49.209Z,5.59
2018-09-29T00:36:49.709Z,5.99
2018-09-29T00:41:48.972Z,5.49
2018-09-29T00:46:49.202Z,5.09
2018-09-29T00:51:49.666Z,5.09
2018-09-29T00:56:49.329Z,5.09
2018-09-29T01:01:49.559Z,4.89
2018-09-29T01:06:49.023Z,4.59
2018-09-29T01:11:49.262Z,4.49
2018-09-29T01:16:49.577Z,4.49
2018-09-29T01:21:49.042Z,4.49
2018-09-29T01:26:49.599Z,4.79
2018-09-29T01:31:48.890Z,4.59
2018-09-29T01:36:49.373Z,4.59
2018-09-29T01:41:49.559Z,4.39
2018-09-29T01:46:48.871Z,4.59
2018-09-29T01:51:49.369Z,4.29
2018-09-29T01:56:48.957Z,3.99
2018-09-29T02:01:49.253Z,3.99
2018-09-29T02:06:49.722Z,4.19
2018-09-29T02:11:48.926Z,3.99
2018-09-29T02:16:49.206Z,4.19
2018-09-29T02:21:49.663Z,3.99
2018-09-29T02:26:49.258Z,3.99
2018-09-29T02:31:49.578Z,4.39
2018-09-29T02:36:49.037Z,4.39
2018-09-29T02:41:49.200Z,3.69
2018-09-29T02:46:49.489Z,3.79
2018-09-29T02:51:48.940Z,4.09
2018-09-29T02:56:49.551Z,4.19
2018-09-29T03:01:48.802Z,3.89
2018-09-29T03:06:49.288Z,4.29
2018-09-29T03:11:49.547Z,3.69
2018-09-29T03:16:48.833Z,3.89
2018-09-29T03:21:49.240Z,3.59
2018-09-29T03:26:48.868Z,3.79
2018-09-29T03:31:49.544Z,3.59
2018-09-29T03:36:49.642Z,3.39
2018-09-29T03:41:48.913Z,3.49
2018-09-29T03:46:49.211Z,3.69
2018-09-29T03:51:49.666Z,3.79
2018-09-29T03:56:49.266Z,3.39
2018-09-29T04:01:49.542Z,3.29
2018-09-29T04:06:49.091Z,3.29
2018-09-29T04:11:49.290Z,3.09
2018-09-29T04:16:49.571Z,2.99
2018-09-29T04:21:49.063Z,2.89
2018-09-29T04:26:49.650Z,2.99
2018-09-29T04:31:48.961Z,3.49
2018-09-29T04:36:49.369Z,3.39
2018-09-29T04:41:49.605Z,2.89
2018-09-29T04:46:48.914Z,2.69
2018-09-29T04:51:49.375Z,2.79
2018-09-29T04:56:48.979Z,2.79
2018-09-29T05:01:49.267Z,2.99
2018-09-29T05:06:49.806Z,2.79
2018-09-29T05:11:49.567Z,2.69
2018-09-29T05:16:48.903Z,2.99
2018-09-29T05:21:49.324Z,3.59
2018-09-29T05:26:48.900Z,3.59
2018-09-29T05:31:49.236Z,2.79
2018-09-29T05:36:49.668Z,2.59
2018-09-29T05:41:48.864Z,2.59
2018-09-29T05:46:49.158Z,2.49
2018-09-29T05:51:49.671Z,3.09
2018-09-29T05:56:49.225Z,3.29
2018-09-29T06:01:49.532Z,3.39
2018-09-29T06:06:49.174Z,3.29
2018-09-29T06:11:49.218Z,3.19
2018-09-29T06:16:49.515Z,3.29
2018-09-29T06:21:48.982Z,3.39
2018-09-29T06:26:49.632Z,3.59
2018-09-29T06:31:48.867Z,3.69
2018-09-29T06:36:49.553Z,3.79
2018-09-29T06:41:49.555Z,3.79
2018-09-29T06:46:48.848Z,3.99
2018-09-29T06:51:49.313Z,4.49
2018-09-29T06:56:48.932Z,4.49
2018-09-29T07:01:49.196Z,4.99
2018-09-29T07:06:49.745Z,4.79
2018-09-29T07:11:48.950Z,4.59
2018-09-29T07:16:49.212Z,4.69
2018-09-29T07:21:50.117Z,4.79
2018-09-29T07:26:49.640Z,4.89
2018-09-29T07:31:49.576Z,5.39
2018-09-29T07:36:49.030Z,6.19
2018-09-29T07:41:49.204Z,5.99
2018-09-29T07:46:49.524Z,6.09
2018-09-29T07:51:49.010Z,6.39
2018-09-29T07:56:49.541Z,6.39
2018-09-29T08:01:48.883Z,6.29
2018-09-29T08:06:49.433Z,6.79
2018-09-29T08:11:49.545Z,6.69
2018-09-29T08:16:49.271Z,7.19
2018-09-29T08:21:49.282Z,7.89
2018-09-29T08:26:49.481Z,8.29
2018-09-29T08:31:49.148Z,8.29
2018-09-29T08:36:49.579Z,8.59
2018-09-29T08:41:48.839Z,8.99
2018-09-29T08:46:49.543Z,9.59
2018-09-29T08:51:49.589Z,9.69
2018-09-29T08:56:49.185Z,9.79
2018-09-29T09:01:49.509Z,9.39
2018-09-29T09:06:48.965Z,9.39
2018-09-29T09:11:49.209Z,9.89
2018-09-29T09:16:49.731Z,10.19
2018-09-29T09:21:48.973Z,10.78
2018-09-29T09:26:49.546Z,11.19
2018-09-29T09:31:48.836Z,11.38
2018-09-29T09:36:49.249Z,11.29
2018-09-29T09:41:49.524Z,11.53
2018-09-29T09:46:48.802Z,11.82
2018-09-29T09:51:49.243Z,11.80
2018-09-29T09:56:48.822Z,11.29
2018-09-29T10:01:49.113Z,11.36
2018-09-29T10:06:49.591Z,11.72
2018-09-29T10:11:48.835Z,12.09
2018-09-29T10:16:49.145Z,12.18
2018-09-29T10:21:49.624Z,11.93
2018-09-29T10:26:49.202Z,12.18
2018-09-29T10:31:49.489Z,12.18
2018-09-29T10:36:48.958Z,12.01
2018-09-29T10:41:49.147Z,12.09
2018-09-29T10:46:49.453Z,11.98
2018-09-29T10:51:48.948Z,11.65
2018-09-29T10:56:49.537Z,12.42
2018-09-29T11:01:48.866Z,12.42
2018-09-29T11:06:49.329Z,12.40
2018-09-29T11:11:49.545Z,12.06
2018-09-29T11:16:48.889Z,12.81
2018-09-29T11:21:49.332Z,12.40
2018-09-29T11:26:48.909Z,12.81
2018-09-29T11:31:49.202Z,12.50
2018-09-29T11:36:49.645Z,12.42
2018-09-29T11:41:48.942Z,12.67
2018-09-29T11:46:49.165Z,12.44
2018-09-29T11:51:49.586Z,12.44
2018-09-29T11:56:49.153Z,12.87
2018-09-29T12:01:49.783Z,12.64
2018-09-29T12:06:48.964Z,12.22
2018-09-29T12:11:49.151Z,12.71
2018-09-29T12:16:49.556Z,12.15
2018-09-29T12:21:48.941Z,12.54
2018-09-29T12:26:49.550Z,12.50
2018-09-29T12:31:48.921Z,12.27
2018-09-29T12:36:49.495Z,12.69
2018-09-29T12:41:49.547Z,12.28
2018-09-29T12:46:48.785Z,12.34
2018-09-29T12:51:49.450Z,12.20
2018-09-29T12:56:48.830Z,12.32
2018-09-29T13:01:49.108Z,12.28
2018-09-29T13:06:49.617Z,12.40
2018-09-29T13:11:48.889Z,12.69
2018-09-29T13:16:49.296Z,12.59
2018-09-29T13:21:49.666Z,12.44
2018-09-29T13:26:49.188Z,12.32
2018-09-29T13:31:49.668Z,12.40
2018-09-29T13:36:48.990Z,12.20
2018-09-29T13:41:49.164Z,12.41
2018-09-29T13:46:49.541Z,12.63
2018-09-29T13:51:48.986Z,12.38
2018-09-29T13:56:49.582Z,12.80
2018-09-29T14:01:48.852Z,12.00
2018-09-29T14:06:49.314Z,12.53
2018-09-29T14:11:49.548Z,12.80
2018-09-29T14:16:48.864Z,12.39
2018-09-29T14:21:49.293Z,12.18
2018-09-29T14:26:48.868Z,12.69
2018-09-29T14:31:49.895Z,12.53
2018-09-29T14:36:49.779Z,12.40
2018-09-29T14:41:49.065Z,12.22
2018-09-29T14:46:49.119Z,12.36
2018-09-29T14:51:49.580Z,12.24
2018-09-29T14:56:49.191Z,12.09
2018-09-29T15:01:49.503Z,12.14
2018-09-29T15:06:48.993Z,12.32
2018-09-29T15:11:49.209Z,12.21
2018-09-29T15:16:49.509Z,12.24
2018-09-29T15:21:48.989Z,12.60
2018-09-29T15:26:49.945Z,12.41
2018-09-29T15:31:48.914Z,11.93
2018-09-29T15:36:49.409Z,11.99
2018-09-29T15:41:49.510Z,12.00
2018-09-29T15:46:48.835Z,12.03
2018-09-29T15:51:49.301Z,11.86
2018-09-29T15:56:48.859Z,11.83
2018-09-29T16:01:49.133Z,11.80
2018-09-29T16:06:49.645Z,11.62
2018-09-29T16:11:48.869Z,11.51
2018-09-29T16:16:49.179Z,11.26
2018-09-29T16:21:49.909Z,11.04
2018-09-29T16:26:49.180Z,11.22
2018-09-29T16:31:49.605Z,11.14
2018-09-29T16:36:48.960Z,11.07
2018-09-29T16:41:49.234Z,10.95
2018-09-29T16:46:49.523Z,10.91
2018-09-29T16:51:48.953Z,10.96
2018-09-29T16:56:49.463Z,10.89
2018-09-29T17:01:48.763Z,11.14
2018-09-29T17:06:49.251Z,11.32
2018-09-29T17:11:49.480Z,11.19
2018-09-29T17:16:48.770Z,11.09
2018-09-29T17:21:49.399Z,11.20
2018-09-29T17:26:48.785Z,11.24
2018-09-29T17:31:49.322Z,11.42
2018-09-29T17:36:49.585Z,11.40
2018-09-29T17:41:48.865Z,11.27
2018-09-29T17:46:49.118Z,10.87
2018-09-29T17:51:49.547Z,10.80
2018-09-29T17:56:49.179Z,10.85
2018-09-29T18:01:49.404Z,11.04
2018-09-29T18:06:48.928Z,10.94
2018-09-29T18:11:49.138Z,10.79
2018-09-29T18:16:49.456Z,10.35
2018-09-29T18:21:49.005Z,10.25
2018-09-29T18:26:49.468Z,10.17
2018-09-29T18:31:48.773Z,10.00
2018-09-29T18:36:49.243Z,9.79
2018-09-29T18:41:49.439Z,10.29
2018-09-29T18:46:48.705Z,9.45
2018-09-29T18:51:49.544Z,9.61
2018-09-29T18:56:48.837Z,9.63
2018-09-29T19:01:49.089Z,9.56
2018-09-29T19:06:49.616Z,10.00
2018-09-29T19:11:48.930Z,10.09
2018-09-29T19:16:49.107Z,9.58
2018-09-29T19:21:49.567Z,9.35
2018-09-29T19:26:49.161Z,9.76
2018-09-29T19:31:49.569Z,9.70
2018-09-29T19:36:48.970Z,9.06
2018-09-29T19:41:49.132Z,8.39
2018-09-29T19:46:49.438Z,8.29
2018-09-29T19:51:48.913Z,8.89
2018-09-29T19:56:49.494Z,9.44
2018-09-29T20:01:48.814Z,9.07
2018-09-29T20:06:49.269Z,9.01
2018-09-29T20:11:49.481Z,9.38
2018-09-29T20:16:48.783Z,8.74
2018-09-29T20:21:49.243Z,8.29
2018-09-29T20:26:48.827Z,7.89
2018-09-29T20:31:49.143Z,7.49
2018-09-29T20:36:49.636Z,7.79
2018-09-29T20:41:48.854Z,8.19
2018-09-29T20:46:49.130Z,8.70
2018-09-29T20:51:49.591Z,8.68
2018-09-29T20:56:49.177Z,8.37
2018-09-29T21:01:49.468Z,7.99
2018-09-29T21:06:48.988Z,7.19
2018-09-29T21:11:49.179Z,7.09
2018-09-29T21:16:49.490Z,8.09
2018-09-29T21:21:48.957Z,8.47
2018-09-29T21:26:49.523Z,7.89
2018-09-29T21:31:48.831Z,7.19
2018-09-29T21:36:49.281Z,7.19
2018-09-29T21:41:49.526Z,7.59
2018-09-29T21:46:48.795Z,7.79
2018-09-29T21:51:49.262Z,7.49
2018-09-29T21:56:48.855Z,6.89
2018-09-29T22:01:49.154Z,6.69
2018-09-29T22:06:49.657Z,6.49
2018-09-29T22:11:48.842Z,6.69
2018-09-29T22:16:49.834Z,7.19
2018-09-29T22:21:49.597Z,7.39
2018-09-29T22:26:49.226Z,7.19
2018-09-29T22:31:49.887Z,6.89
2018-09-29T22:36:48.956Z,6.39
2018-09-29T22:41:49.149Z,6.29
2018-09-29T22:46:49.463Z,6.09
2018-09-29T22:51:48.947Z,6.39
2018-09-29T22:56:49.562Z,6.59
2018-09-29T23:01:48.830Z,6.99
2018-09-29T23:06:49.283Z,6.29
2018-09-29T23:11:49.558Z,5.69
2018-09-29T23:16:48.847Z,5.59
2018-09-29T23:21:49.271Z,5.19
2018-09-29T23:26:48.865Z,6.09
2018-09-29T23:31:49.152Z,6.49
2018-09-29T23:36:49.583Z,6.79
2018-09-29T23:41:48.814Z,6.09
2018-09-29T23:46:49.105Z,6.19
2018-09-29T23:51:49.563Z,6.09
2018-09-29T23:56:49.177Z,6.19
